Beacon Hill, Washington
Current Conditions -  °F | °C
As of 9:53 AM on Thursday 27 Nov 2014 (Local Time) from KBFI Reporting Station
Overcast Overcast  
Wind Chill: 60°   Ceiling: 2800
Heat Index: 60°   Visibility: 10mi
Dew Point: 49°   Wind: 10mph
Humidity: 67%   Direction: 180°S
Pressure: 29.85"   Gusts: 18mph
Location:  47.5852°N, 122.3°W
Report Text: KBFI 271753Z 18009G16KT 10SM OVC028 16/09 A2985 RMK AO2 SLP108 60001 T01560094 10156 20133 50001
Loading
Personal Weather Stations






























Interactive Weather Map New forecast layout! Learn more

10-Day Weather Forecast

Advertisements
Track Severe Weather on mobile